Time;durP1;ratioP1;P1;durP2;ratioP2;P2;SDS_P1;SDS_P2;PMS_P1;PMS_P2;Temp;Humidity;BMP_temperature;BMP_pressure;BME280_temperature;BME280_humidity;BME280_pressure;Samples;Min_cycle;Max_cycle;Signal;HPM_P1;HPM_P2
2022/05/07 00:01:46;;;;;;;13.20;7.43;;;;;;;20.77;45.93;99070.81;4486710;32;20130;-83
2022/05/07 00:04:11;;;;;;;12.85;6.68;;;;;;;20.74;45.42;99076.44;4486789;32;20132;-82
2022/05/07 00:06:36;;;;;;;13.05;6.50;;;;;;;20.52;45.48;99072.22;4472299;32;20383;-83
2022/05/07 00:09:02;;;;;;;12.75;6.65;;;;;;;20.52;45.85;99080.25;4486652;32;20420;-83
2022/05/07 00:11:27;;;;;;;12.15;6.85;;;;;;;20.36;46.65;99068.25;4472387;32;20189;-82
2022/05/07 00:13:53;;;;;;;12.30;6.82;;;;;;;20.64;46.18;99064.91;4486516;32;20337;-82
2022/05/07 00:19:03;;;;;;;14.38;7.78;;;;;;;20.42;45.93;99067.69;4486436;32;20137;-82
2022/05/07 00:21:28;;;;;;;14.65;6.87;;;;;;;20.49;45.83;99067.12;4486446;32;20092;-83
2022/05/07 00:23:54;;;;;;;12.07;6.60;;;;;;;20.46;45.92;99070.94;4472211;32;20122;-83
2022/05/07 00:26:19;;;;;;;13.80;7.10;;;;;;;20.49;46.38;99059.09;4486360;32;20173;-82
2022/05/07 00:28:45;;;;;;;11.25;6.37;;;;;;;20.36;45.90;99070.09;4486410;32;20106;-82
2022/05/07 00:31:11;;;;;;;13.38;6.68;;;;;;;20.40;45.85;99060.78;4486244;32;20092;-82
2022/05/07 00:33:37;;;;;;;12.40;6.90;;;;;;;20.38;45.67;99068.97;4486250;32;20110;-83
2022/05/07 00:36:03;;;;;;;12.77;6.32;;;;;;;20.37;45.54;99061.91;4486573;32;20088;-83
2022/05/07 00:38:28;;;;;;;12.02;6.93;;;;;;;20.35;45.93;99060.34;4473769;32;20096;-83
2022/05/07 00:40:53;;;;;;;13.15;6.93;;;;;;;20.36;46.03;99062.91;4488203;32;20101;-83
2022/05/07 00:43:19;;;;;;;12.68;6.90;;;;;;;20.13;46.51;99061.47;4488116;32;20127;-83
2022/05/07 00:45:49;;;;;;;12.50;6.97;;;;;;;20.38;45.83;99060.94;4488379;32;20127;-83
2022/05/07 00:48:15;;;;;;;13.50;6.20;;;;;;;20.11;45.99;99058.91;4474190;32;20091;-83
2022/05/07 00:53:25;;;;;;;12.27;6.40;;;;;;;20.29;46.13;99061.75;4488268;32;20119;-83
2022/05/07 00:55:51;;;;;;;12.35;6.20;;;;;;;20.28;45.95;99059.22;4488086;32;20108;-82
2022/05/07 00:58:18;;;;;;;11.30;6.07;;;;;;;20.29;45.79;99059.06;4473812;32;20136;-82
2022/05/07 01:00:46;;;;;;;11.63;6.05;;;;;;;20.33;46.04;99057.81;4473753;32;20388;-83
2022/05/07 01:03:12;;;;;;;12.43;5.85;;;;;;;20.33;45.22;99054.31;4488163;32;20595;-83
2022/05/07 01:05:39;;;;;;;10.95;5.85;;;;;;;20.31;44.59;99051.75;4488302;32;20116;-83
2022/05/07 01:08:05;;;;;;;13.62;6.35;;;;;;;20.31;44.58;99056.28;4474151;32;20499;-83
2022/05/07 01:10:31;;;;;;;11.12;6.03;;;;;;;20.29;44.81;99055.56;4488218;32;20100;-83
2022/05/07 01:12:57;;;;;;;11.18;5.30;;;;;;;20.30;44.86;99059.91;4488332;32;20137;-83
2022/05/07 01:15:24;;;;;;;12.20;5.68;;;;;;;20.35;44.64;99065.72;4487947;32;20128;-83
2022/05/07 01:17:49;;;;;;;11.75;5.80;;;;;;;20.34;44.73;99055.97;4473780;32;20114;-83
2022/05/07 01:20:15;;;;;;;11.60;5.80;;;;;;;20.37;44.65;99053.03;4487660;32;20068;-83
2022/05/07 01:22:41;;;;;;;10.80;5.30;;;;;;;20.41;44.69;99049.09;4473729;32;20122;-83
2022/05/07 01:25:07;;;;;;;14.87;6.05;;;;;;;20.36;44.91;99054.88;4487866;32;20084;-83
2022/05/07 01:27:33;;;;;;;11.20;5.80;;;;;;;20.36;44.60;99052.19;4488091;32;20106;-83
2022/05/07 01:29:58;;;;;;;10.88;5.65;;;;;;;20.36;44.56;99052.19;4473986;32;20451;-83
2022/05/07 01:32:23;;;;;;;12.40;5.78;;;;;;;20.41;44.50;99046.41;4488117;32;20118;-83
2022/05/07 01:34:51;;;;;;;11.18;5.65;;;;;;;20.40;44.64;99050.94;4473789;32;20446;-82
2022/05/07 01:37:17;;;;;;;11.45;5.90;;;;;;;20.42;44.78;99050.78;4487885;32;20154;-82
2022/05/07 01:39:42;;;;;;;13.50;6.07;;;;;;;20.26;45.13;99045.12;4487985;32;20096;-83
2022/05/07 01:42:08;;;;;;;11.30;5.70;;;;;;;20.32;44.93;99047.25;4473676;32;20131;-83
2022/05/07 01:44:33;;;;;;;11.20;5.93;;;;;;;20.39;44.75;99048.37;4487919;32;20084;-83
2022/05/07 01:49:43;;;;;;;11.68;6.12;;;;;;;20.31;45.11;99045.56;4487806;32;20127;-82
2022/05/07 01:52:10;;;;;;;12.32;6.10;;;;;;;20.33;45.14;99052.47;4487856;32;20088;-83
2022/05/07 01:54:35;;;;;;;10.23;5.28;;;;;;;20.39;45.46;99040.34;4487670;32;20107;-83
2022/05/07 01:57:01;;;;;;;13.30;5.72;;;;;;;20.36;45.91;99046.00;4487597;32;20093;-83
2022/05/07 01:59:26;;;;;;;12.00;5.45;;;;;;;20.33;45.70;99043.59;4473347;32;20100;-83
2022/05/07 02:01:52;;;;;;;10.65;4.78;;;;;;;20.28;44.68;99043.16;4473359;32;20368;-82
2022/05/07 02:04:17;;;;;;;10.48;4.78;;;;;;;20.31;44.44;99042.91;4487655;32;20143;-83
2022/05/07 02:06:43;;;;;;;10.57;5.20;;;;;;;20.29;44.50;99044.88;4487716;32;20084;-82
2022/05/07 02:09:08;;;;;;;10.48;5.10;;;;;;;20.17;44.74;99036.12;4473098;32;20105;-82
2022/05/07 02:11:34;;;;;;;9.98;4.97;;;;;;;20.19;44.79;99037.66;4487525;32;20084;-83
2022/05/07 02:13:59;;;;;;;10.55;5.18;;;;;;;20.23;44.75;99041.75;4487466;32;20333;-82
2022/05/07 02:16:24;;;;;;;9.40;4.30;;;;;;;20.18;44.35;99041.31;4487358;32;20111;-83
2022/05/07 02:18:50;;;;;;;9.70;4.70;;;;;;;20.25;43.30;99041.63;4487371;32;20360;-83
2022/05/07 02:21:15;;;;;;;9.88;4.40;;;;;;;20.15;43.72;99038.94;4487332;32;20111;-82
2022/05/07 02:23:41;;;;;;;9.98;4.80;;;;;;;20.17;43.89;99031.63;4487423;32;20378;-82
2022/05/07 02:26:06;;;;;;;10.23;4.57;;;;;;;20.13;43.50;99040.06;4487371;32;20110;-82
2022/05/07 02:28:31;;;;;;;10.13;4.72;;;;;;;20.14;43.42;99039.91;4487373;32;20110;-83
2022/05/07 02:30:57;;;;;;;10.38;4.53;;;;;;;20.11;43.50;99040.19;4472997;32;20100;-82
2022/05/07 02:33:22;;;;;;;11.73;4.43;;;;;;;20.13;43.56;99042.75;4487279;32;20080;-83
2022/05/07 02:35:48;;;;;;;10.55;5.05;;;;;;;20.08;43.88;99039.63;4486905;32;20448;-82
2022/05/07 02:38:14;;;;;;;12.40;4.60;;;;;;;20.04;43.93;99033.69;4473106;32;20123;-83
2022/05/07 02:43:23;;;;;;;10.82;4.90;;;;;;;20.09;43.70;99036.81;4475279;32;20107;-83
2022/05/07 02:45:49;;;;;;;10.18;4.55;;;;;;;20.10;43.70;99037.66;4487154;32;20080;-83
2022/05/07 02:48:14;;;;;;;9.77;4.68;;;;;;;20.07;43.62;99029.91;4487314;32;20134;-82
2022/05/07 02:50:39;;;;;;;10.18;5.05;;;;;;;20.13;43.37;99038.22;4487297;32;20088;-83
2022/05/07 02:53:05;;;;;;;10.60;5.00;;;;;;;20.09;43.51;99039.50;4487216;32;20084;-83
2022/05/07 02:55:30;;;;;;;9.93;4.90;;;;;;;20.08;43.52;99039.63;4487186;32;20124;-82
2022/05/07 02:57:56;;;;;;;10.80;4.97;;;;;;;20.13;43.32;99040.06;4486891;32;20108;-82
2022/05/07 03:00:21;;;;;;;10.02;4.72;;;;;;;20.04;43.43;99045.25;4486343;32;20462;-83
2022/05/07 03:02:47;;;;;;;10.15;4.40;;;;;;;20.00;43.69;99043.00;4487088;32;20424;-83
2022/05/07 03:05:12;;;;;;;9.32;4.57;;;;;;;19.96;43.99;99033.56;4487178;32;20080;-82
2022/05/07 03:07:38;;;;;;;10.52;5.40;;;;;;;19.95;43.96;99042.53;4487284;32;20534;-83
2022/05/07 03:10:04;;;;;;;11.35;4.75;;;;;;;19.98;43.64;99039.59;4487245;32;20371;-83
2022/05/07 03:12:30;;;;;;;10.70;5.12;;;;;;;19.94;43.78;99040.87;4487483;32;20096;-83
2022/05/07 03:14:55;;;;;;;9.45;4.90;;;;;;;19.99;44.21;99036.81;4487084;32;20153;-83
2022/05/07 03:17:23;;;;;;;11.15;5.03;;;;;;;20.00;43.98;99045.66;4487071;32;20513;-83
2022/05/07 03:19:48;;;;;;;10.40;5.15;;;;;;;19.98;44.08;99044.97;4487132;32;20099;-83
2022/05/07 03:22:13;;;;;;;11.55;4.85;;;;;;;19.92;44.32;99037.50;4486988;32;20114;-83
2022/05/07 03:24:40;;;;;;;10.43;4.93;;;;;;;19.92;43.85;99040.16;4486939;32;20360;-83
2022/05/07 03:27:06;;;;;;;11.00;5.05;;;;;;;19.92;44.13;99040.16;4487012;32;20096;-83
2022/05/07 03:29:31;;;;;;;10.15;4.80;;;;;;;19.92;44.31;99045.50;4486949;32;20431;-83
2022/05/07 03:31:57;;;;;;;11.65;4.70;;;;;;;19.93;44.34;99040.00;4487007;32;20092;-83
2022/05/07 03:34:22;;;;;;;10.10;4.82;;;;;;;19.92;44.37;99046.34;4487004;32;20115;-83
2022/05/07 03:36:48;;;;;;;10.18;4.97;;;;;;;19.96;44.29;99039.75;4486655;32;20139;-82
2022/05/07 03:39:14;;;;;;;11.40;5.80;;;;;;;19.90;43.94;99053.66;4486964;32;20360;-83
2022/05/07 03:41:39;;;;;;;10.93;5.20;;;;;;;19.92;44.05;99041.00;4486852;32;20140;-83
2022/05/07 03:44:05;;;;;;;11.65;5.45;;;;;;;19.90;44.17;99047.47;4486784;32;20115;-83
2022/05/07 03:46:30;;;;;;;11.12;5.20;;;;;;;19.90;44.33;99044.81;4472506;32;20104;-83
2022/05/07 03:48:56;;;;;;;10.90;5.60;;;;;;;19.92;44.51;99046.34;4486739;32;20072;-83
2022/05/07 03:51:21;;;;;;;10.65;5.35;;;;;;;19.95;44.71;99046.09;4486781;32;20403;-83
2022/05/07 03:53:47;;;;;;;12.27;5.57;;;;;;;20.01;45.00;99045.53;4486766;32;20117;-83
2022/05/07 03:56:13;;;;;;;11.15;5.43;;;;;;;20.01;44.93;99050.88;4486695;32;20118;-82
2022/05/07 03:58:39;;;;;;;10.85;5.07;;;;;;;19.99;45.44;99054.66;4486676;32;20114;-83
2022/05/07 04:01:04;;;;;;;9.35;5.00;;;;;;;20.04;45.67;99052.41;4486863;32;20076;-83
2022/05/07 04:03:30;;;;;;;10.88;5.25;;;;;;;20.08;45.86;99059.19;4459505;32;20089;-82
2022/05/07 04:05:56;;;;;;;11.00;5.60;;;;;;;20.15;45.30;99056.81;4486713;32;20089;-82
2022/05/07 04:08:23;;;;;;;11.95;5.55;;;;;;;20.06;44.96;99057.63;4472594;32;20108;-82
2022/05/07 04:10:49;;;;;;;11.77;5.70;;;;;;;20.00;45.70;99056.34;4471153;32;20119;-82
2022/05/07 04:13:17;;;;;;;10.95;5.55;;;;;;;20.02;45.60;99057.06;4486853;32;20437;-83
2022/05/07 04:15:43;;;;;;;11.07;5.40;;;;;;;20.05;45.58;99059.47;4486795;32;20484;-83
2022/05/07 04:18:09;;;;;;;11.77;5.40;;;;;;;20.06;45.72;99055.81;4486684;32;20122;-83
2022/05/07 04:20:35;;;;;;;11.18;5.60;;;;;;;20.14;45.59;99060.47;4472578;32;20111;-82
2022/05/07 04:23:01;;;;;;;10.77;5.80;;;;;;;19.80;46.27;99067.00;4486812;32;20085;-83
2022/05/07 04:25:27;;;;;;;10.70;5.37;;;;;;;19.97;46.08;99070.84;4472476;32;20105;-83
2022/05/07 04:27:53;;;;;;;11.82;5.90;;;;;;;20.08;46.06;99069.88;4486706;32;20463;-82
2022/05/07 04:30:19;;;;;;;13.57;6.00;;;;;;;19.80;46.24;99069.69;4486752;32;20088;-83
2022/05/07 04:32:45;;;;;;;12.20;5.53;;;;;;;19.98;46.04;99071.69;4486403;32;20084;-82
2022/05/07 04:35:10;;;;;;;10.88;5.50;;;;;;;20.03;46.20;99074.81;4486431;32;20107;-82
2022/05/07 04:37:36;;;;;;;11.88;6.43;;;;;;;20.16;46.55;99070.03;4486223;32;20092;-83
2022/05/07 04:40:02;;;;;;;11.75;5.97;;;;;;;20.04;46.21;99081.84;4472352;32;20088;-82
2022/05/07 04:42:27;;;;;;;11.55;6.22;;;;;;;19.89;46.01;99072.50;4486412;32;20344;-83
2022/05/07 04:44:53;;;;;;;11.77;5.78;;;;;;;19.88;46.23;99073.50;4472003;32;20150;-83
2022/05/07 04:47:18;;;;;;;12.20;6.15;;;;;;;20.08;46.03;99064.53;4486396;32;20128;-83
2022/05/07 04:49:44;;;;;;;12.95;6.47;;;;;;;20.16;46.17;99071.87;4486370;32;20107;-83
2022/05/07 04:52:10;;;;;;;12.27;6.50;;;;;;;20.25;45.99;99076.41;4472023;32;20170;-82
2022/05/07 04:54:36;;;;;;;11.98;6.28;;;;;;;20.20;45.63;99075.97;4486381;32;20084;-83
2022/05/07 04:57:02;;;;;;;13.45;6.55;;;;;;;20.02;45.89;99078.47;4486390;32;20118;-83
2022/05/07 04:59:28;;;;;;;11.27;6.28;;;;;;;20.04;46.09;99084.50;4486159;32;20104;-82
2022/05/07 05:01:53;;;;;;;12.00;6.03;;;;;;;20.20;46.05;99078.63;4471979;32;20084;-83
2022/05/07 05:04:19;;;;;;;11.05;5.70;;;;;;;20.27;46.34;99076.25;4486118;32;20455;-82
2022/05/07 05:06:44;;;;;;;12.00;6.35;;;;;;;20.41;45.82;99081.19;4486225;32;20092;-83
2022/05/07 05:09:12;;;;;;;11.93;6.47;;;;;;;20.48;45.23;99076.16;4458546;32;20132;-82
2022/05/07 05:11:38;;;;;;;11.32;6.12;;;;;;;20.46;44.80;99072.78;4485807;32;20149;-83
2022/05/07 05:16:48;;;;;;;11.35;5.90;;;;;;;20.67;44.41;99073.50;4473854;32;20149;-83
2022/05/07 05:19:14;;;;;;;11.63;5.85;;;;;;;20.60;44.49;99075.88;4485565;32;20096;-83
2022/05/07 05:21:39;;;;;;;11.40;5.78;;;;;;;20.64;45.06;99075.62;4485614;32;20116;-82
2022/05/07 05:24:05;;;;;;;12.43;6.50;;;;;;;20.79;44.31;99071.53;4487834;32;20092;-83
2022/05/07 05:26:30;;;;;;;11.48;5.87;;;;;;;20.81;43.75;99078.41;4487877;32;20096;-82
2022/05/07 05:28:56;;;;;;;10.95;5.53;;;;;;;20.92;43.49;99076.56;4487895;32;20081;-83
2022/05/07 05:31:23;;;;;;;11.93;6.28;;;;;;;20.90;44.02;99076.75;4473705;32;20107;-83
2022/05/07 05:33:48;;;;;;;12.52;5.95;;;;;;;20.92;44.08;99085.47;4487883;32;20088;-83
2022/05/07 05:36:14;;;;;;;13.07;6.37;;;;;;;21.12;43.53;99080.09;4487825;32;20115;-82
2022/05/07 05:38:39;;;;;;;13.45;6.35;;;;;;;21.21;43.42;99085.44;4487775;32;20084;-83
2022/05/07 05:41:05;;;;;;;11.65;6.47;;;;;;;21.23;43.15;99082.59;4473596;32;20447;-83
2022/05/07 05:43:31;;;;;;;11.12;5.90;;;;;;;21.31;43.62;99084.56;4487830;32;20088;-83
2022/05/07 05:45:57;;;;;;;11.73;6.25;;;;;;;21.38;42.81;99075.81;4487836;32;20143;-82
2022/05/07 05:48:24;;;;;;;12.00;6.40;;;;;;;21.46;42.92;99080.47;4487796;32;20432;-82
2022/05/07 05:50:49;;;;;;;11.05;6.00;;;;;;;21.58;42.68;99076.59;4487718;32;20138;-83
2022/05/07 05:53:15;;;;;;;11.68;6.35;;;;;;;21.60;42.90;99084.50;4487623;32;20388;-82
2022/05/07 05:55:40;;;;;;;11.93;6.65;;;;;;;21.68;41.98;99084.59;4487744;32;20422;-83
2022/05/07 05:58:06;;;;;;;11.80;6.00;;;;;;;21.67;42.00;99088.28;4487693;32;20084;-83
2022/05/07 06:00:31;;;;;;;12.23;6.05;;;;;;;21.67;42.35;99082.06;4487558;32;20080;-82
2022/05/07 06:02:57;;;;;;;12.05;5.90;;;;;;;21.67;42.45;99082.06;4487634;32;20142;-82
2022/05/07 06:05:22;;;;;;;12.85;6.50;;;;;;;21.84;42.59;99080.44;4486873;32;20092;-81
2022/05/07 06:07:48;;;;;;;11.68;6.40;;;;;;;21.89;42.49;99084.38;4480500;32;20108;-82
2022/05/07 06:10:13;;;;;;;11.80;6.57;;;;;;;22.14;41.79;99088.19;4485835;32;20068;-82
2022/05/07 06:12:38;;;;;;;12.37;6.12;;;;;;;22.18;41.29;99089.56;4487436;32;20376;-84
2022/05/07 06:15:05;;;;;;;11.32;6.28;;;;;;;22.19;41.62;99088.59;4486463;32;20440;-84
2022/05/07 06:17:31;;;;;;;11.63;6.47;;;;;;;22.35;41.45;99089.78;4486397;32;20088;-81
2022/05/07 06:19:56;;;;;;;13.15;6.65;;;;;;;22.44;41.23;99086.16;4486110;32;20088;-82
2022/05/07 06:22:22;;;;;;;12.32;6.35;;;;;;;22.48;40.87;99092.09;4487393;32;20394;-82
2022/05/07 06:27:31;;;;;;;11.88;6.47;;;;;;;22.71;40.47;99093.31;4487578;32;20111;-80
2022/05/07 06:30:02;;;;;;;13.18;6.85;;;;;;;22.80;40.49;99093.41;4486327;32;20097;-82
2022/05/07 06:32:38;;;;;;;13.15;6.87;;;;;;;22.95;40.64;99092.69;4487531;31;20120;-83
2022/05/07 06:35:04;;;;;;;12.50;6.25;;;;;;;23.06;39.86;99093.47;4485517;32;20108;-82
2022/05/07 06:37:31;;;;;;;13.73;7.10;;;;;;;22.81;40.23;99090.53;4486103;32;20157;-82
2022/05/07 06:39:56;;;;;;;12.93;6.70;;;;;;;22.82;40.17;99094.09;4487330;31;20089;-82
2022/05/07 06:42:22;;;;;;;13.62;6.62;;;;;;;22.87;40.23;99095.31;4486298;32;20109;-84
2022/05/07 06:44:47;;;;;;;13.23;6.68;;;;;;;23.04;39.88;99090.94;4487496;31;20464;-83
2022/05/07 06:47:14;;;;;;;13.02;6.50;;;;;;;23.08;39.96;99096.84;4487312;31;20092;-81
2022/05/07 06:49:40;;;;;;;12.57;7.10;;;;;;;23.22;39.69;99098.97;4487479;31;20084;-81
2022/05/07 06:52:05;;;;;;;14.27;7.70;;;;;;;23.36;39.20;99092.19;4487353;32;20085;-82
2022/05/07 06:54:31;;;;;;;13.30;6.70;;;;;;;23.34;39.33;99096.88;4487315;31;20108;-82
2022/05/07 06:56:56;;;;;;;12.30;6.75;;;;;;;23.33;39.41;99097.84;4486069;32;20076;-82
2022/05/07 06:59:22;;;;;;;12.68;6.95;;;;;;;23.27;39.68;99088.56;4486664;32;20120;-82
2022/05/07 07:01:47;;;;;;;12.60;6.95;;;;;;;23.33;39.83;99098.72;4487364;32;20132;-82
2022/05/07 07:04:13;;;;;;;12.37;6.87;;;;;;;23.41;39.29;99094.37;4487318;31;20116;-82
2022/05/07 07:06:39;;;;;;;14.63;6.90;;;;;;;23.42;39.04;99085.31;4487399;31;20116;-82
2022/05/07 07:09:04;;;;;;;12.25;7.03;;;;;;;23.43;39.01;99089.69;4487636;31;20076;-82
2022/05/07 07:11:31;;;;;;;12.68;6.87;;;;;;;23.50;39.17;99090.75;4487524;31;20119;-82
2022/05/07 07:13:56;;;;;;;12.35;6.82;;;;;;;23.51;38.91;99089.75;4487388;31;20474;-82
2022/05/07 07:16:22;;;;;;;12.37;7.05;;;;;;;23.57;39.06;99089.13;4486248;32;20088;-82
2022/05/07 07:18:48;;;;;;;13.25;6.72;;;;;;;23.70;39.28;99092.22;4487314;31;20084;-82
2022/05/07 07:21:13;;;;;;;12.60;7.07;;;;;;;23.75;38.91;99099.78;4487195;31;20081;-82
2022/05/07 07:23:38;;;;;;;11.57;6.65;;;;;;;23.77;38.82;99096.94;4485735;32;20142;-82
2022/05/07 07:26:04;;;;;;;12.50;7.05;;;;;;;23.26;39.59;99102.19;4487034;32;20085;-82
2022/05/07 07:28:30;;;;;;;12.77;6.78;;;;;;;23.65;38.86;99099.91;4487123;31;20085;-82
2022/05/07 07:30:55;;;;;;;14.30;6.28;;;;;;;23.73;38.88;99099.09;4487064;31;20131;-82
2022/05/07 07:33:21;;;;;;;12.93;6.85;;;;;;;23.78;39.22;99101.31;4487072;32;20371;-82
2022/05/07 07:35:46;;;;;;;12.60;6.53;;;;;;;23.95;38.98;99103.09;4486843;32;20152;-82
2022/05/07 07:38:12;;;;;;;11.15;6.62;;;;;;;24.08;38.54;99102.66;4486872;31;20111;-82
2022/05/07 07:40:38;;;;;;;13.70;6.72;;;;;;;24.11;38.54;99103.16;4487006;31;20096;-82
2022/05/07 07:43:04;;;;;;;12.05;6.65;;;;;;;24.36;38.43;99105.09;4485891;32;20157;-82
2022/05/07 07:48:14;;;;;;;57.88;12.63;;;;;;;24.48;38.48;99099.22;4486948;32;20099;-82
2022/05/07 07:50:40;;;;;;;47.90;10.55;;;;;;;24.56;37.75;99103.00;4485708;32;20105;-82
2022/05/07 07:53:07;;;;;;;34.80;9.35;;;;;;;24.60;37.55;99097.09;4485768;32;20130;-82
2022/05/07 07:55:34;;;;;;;12.57;6.90;;;;;;;24.60;37.49;99097.09;4486872;31;20084;-82
2022/05/07 07:58:01;;;;;;;13.02;6.87;;;;;;;24.57;37.17;99104.66;4485648;32;20401;-82
2022/05/07 08:00:27;;;;;;;11.55;6.37;;;;;;;24.37;37.73;99098.72;4485564;32;20092;-82
2022/05/07 08:02:58;;;;;;;13.37;6.63;;;;;;;24.43;38.38;99095.34;4486889;31;20088;-82
2022/05/07 08:05:26;;;;;;;25.62;8.52;;;;;;;24.48;38.46;99096.53;4485719;32;20108;-82
2022/05/07 08:13:20;;;;;;;17.67;7.37;;;;;;;24.81;37.40;99095.78;4486785;32;20157;-82
2022/05/07 08:15:46;;;;;;;12.73;6.60;;;;;;;24.87;37.62;99095.09;4486542;31;20433;-82
2022/05/07 08:18:12;;;;;;;13.02;6.80;;;;;;;24.86;36.90;99102.34;4486607;31;20080;-82
2022/05/07 08:20:37;;;;;;;12.60;6.30;;;;;;;24.66;37.30;99098.28;4472261;32;20161;-82
2022/05/07 08:23:03;;;;;;;12.43;6.72;;;;;;;24.76;37.15;99100.81;4486517;31;20084;-82
2022/05/07 08:25:28;;;;;;;16.23;6.47;;;;;;;24.74;37.07;99100.97;4486517;31;20140;-82
2022/05/07 08:27:54;;;;;;;11.75;6.90;;;;;;;24.85;36.84;99103.34;4486493;31;20112;-82
2022/05/07 08:30:19;;;;;;;13.45;6.82;;;;;;;24.88;36.86;99103.03;4486420;32;20123;-82
2022/05/07 08:32:45;;;;;;;13.25;6.85;;;;;;;25.05;37.43;99103.00;4486415;32;20131;-82
2022/05/07 08:35:10;;;;;;;12.65;6.65;;;;;;;25.03;36.34;99100.47;4486299;31;20404;-83
2022/05/07 08:37:35;;;;;;;12.50;6.90;;;;;;;24.97;36.28;99109.25;4486192;31;20084;-83
2022/05/07 08:40:04;;;;;;;13.15;7.00;;;;;;;24.98;35.88;99110.09;4486249;32;20399;-80
2022/05/07 08:42:30;;;;;;;12.10;7.12;;;;;;;24.81;36.47;99110.09;4486238;32;20148;-80
2022/05/07 08:44:56;;;;;;;14.10;7.00;;;;;;;24.44;37.29;99113.19;4486239;31;20427;-80
2022/05/07 08:47:23;;;;;;;14.87;7.40;;;;;;;24.41;38.00;99111.66;4484953;32;20458;-80
2022/05/07 08:49:50;;;;;;;12.73;7.73;;;;;;;24.66;36.99;99112.59;4486402;31;20109;-82
2022/05/07 08:52:16;;;;;;;13.20;6.90;;;;;;;24.78;36.89;99112.25;4484943;32;20191;-83
2022/05/07 08:54:42;;;;;;;15.63;7.03;;;;;;;24.89;37.39;99114.63;4486064;32;20092;-83
2022/05/07 08:57:07;;;;;;;13.23;6.30;;;;;;;25.16;36.44;99112.62;4485420;32;20144;-80
2022/05/07 08:59:32;;;;;;;12.75;6.35;;;;;;;25.36;35.90;99113.12;4487948;32;20115;-81
2022/05/07 09:01:58;;;;;;;11.88;6.15;;;;;;;25.46;35.29;99106.53;4487940;32;20084;-81
2022/05/07 09:04:24;;;;;;;13.23;6.35;;;;;;;25.74;35.16;99106.12;4487928;31;20088;-80
2022/05/07 09:06:57;;;;;;;11.60;6.82;;;;;;;25.73;35.02;99107.16;4487926;31;20088;-80
2022/05/07 09:09:22;;;;;;;12.02;6.40;;;;;;;25.88;34.95;99107.25;4488120;31;20479;-81
2022/05/07 09:11:48;;;;;;;11.70;6.25;;;;;;;26.17;34.83;99108.50;4487874;32;20171;-81
2022/05/07 09:14:14;;;;;;;11.68;5.85;;;;;;;26.20;34.24;99108.19;4488090;32;20115;-81
2022/05/07 09:16:43;;;;;;;12.10;6.70;;;;;;;26.41;33.48;99105.69;4487946;31;20088;-81
2022/05/07 09:19:38;;;;;;;13.88;7.00;;;;;;;26.70;33.02;99101.50;4487857;31;20501;-82
2022/05/07 09:22:11;;;;;;;12.57;7.03;;;;;;;26.41;33.10;99111.09;4474161;31;20503;-81
2022/05/07 09:24:37;;;;;;;11.77;6.30;;;;;;;26.18;32.68;99111.03;4473679;32;20106;-81
2022/05/07 09:27:04;;;;;;;13.30;5.60;;;;;;;26.19;32.98;99101.06;4486707;32;20077;-81
2022/05/07 09:29:30;;;;;;;13.62;6.53;;;;;;;26.22;33.80;99109.66;4488009;31;20092;-82
2022/05/07 09:32:09;;;;;;;11.98;6.85;;;;;;;26.42;33.35;99101.97;4486917;32;20105;-81
2022/05/07 09:37:39;;;;;;;12.30;6.80;;;;;;;26.49;33.06;99104.81;4486774;32;20142;-81
2022/05/07 09:40:08;;;;;;;12.68;6.45;;;;;;;26.51;33.04;99094.66;4486923;32;20412;-81
2022/05/07 09:42:34;;;;;;;12.30;6.43;;;;;;;26.62;32.92;99099.69;4487998;31;20088;-81
2022/05/07 09:45:01;;;;;;;13.20;6.97;;;;;;;26.34;33.88;99095.78;4487827;31;20455;-81
2022/05/07 09:47:27;;;;;;;11.32;6.55;;;;;;;26.41;33.70;99091.34;4486530;32;20106;-81
2022/05/07 09:57:30;;;;;;;10.48;5.78;;;;;;;26.32;34.17;99085.16;4487793;32;20168;-81
2022/05/07 09:58:10;;;;;;;13.18;7.03;;;;;;;25.90;33.75;99083.62;4487869;32;20110;-81
2022/05/07 10:01:03;;;;;;;12.50;6.30;;;;;;;25.86;33.83;99087.69;4487567;32;20089;-81
2022/05/07 10:03:37;;;;;;;12.98;5.90;;;;;;;25.92;33.87;99070.81;4484480;32;20111;-81
2022/05/07 10:06:31;;;;;;;11.93;5.90;;;;;;;26.09;34.55;99074.28;4487738;31;20079;-81
2022/05/07 10:08:56;;;;;;;12.30;5.57;;;;;;;26.33;33.55;99067.94;4487834;32;20139;-81
2022/05/07 10:11:22;;;;;;;10.50;5.82;;;;;;;26.46;33.38;99064.63;4487640;31;20402;-81
2022/05/07 10:13:55;;;;;;;10.57;5.73;;;;;;;26.49;32.96;99069.69;4486547;32;20122;-81
2022/05/07 10:16:22;;;;;;;12.37;5.75;;;;;;;26.49;32.91;99066.97;4488021;31;20100;-81
2022/05/07 10:18:48;;;;;;;11.70;5.90;;;;;;;26.48;32.85;99071.56;4486321;32;20152;-81
2022/05/07 10:21:15;;;;;;;12.13;5.95;;;;;;;26.54;31.93;99063.72;4487571;31;20096;-81
2022/05/07 10:23:56;;;;;;;10.73;5.90;;;;;;;26.66;32.13;99065.03;4486465;32;20103;-81
2022/05/07 10:26:40;;;;;;;11.40;6.12;;;;;;;26.77;31.09;99061.06;4487596;31;20570;-81
2022/05/07 10:29:07;;;;;;;12.20;6.80;;;;;;;26.74;31.39;99056.84;4487533;31;20080;-81
2022/05/07 10:31:44;;;;;;;11.25;5.65;;;;;;;26.77;31.02;99061.91;4487537;31;20123;-81
2022/05/07 10:34:09;;;;;;;12.40;6.00;;;;;;;26.71;31.14;99045.56;4486493;32;20126;-81
2022/05/07 10:36:37;;;;;;;11.35;5.53;;;;;;;26.67;32.22;99048.63;4487309;31;20356;-81
2022/05/07 10:39:07;;;;;;;11.18;5.20;;;;;;;26.72;32.11;99053.50;4487498;31;20077;-82
2022/05/07 10:41:32;;;;;;;12.52;5.55;;;;;;;26.82;32.45;99048.69;4486271;32;20472;-81
2022/05/07 10:43:58;;;;;;;12.00;5.65;;;;;;;27.16;30.69;99054.63;4486295;32;20096;-81
2022/05/07 10:46:23;;;;;;;11.20;5.47;;;;;;;27.23;30.74;99055.56;4487381;31;20137;-81
2022/05/07 10:48:53;;;;;;;10.55;5.22;;;;;;;27.12;29.95;99050.59;4487344;31;20124;-81
2022/05/07 10:51:36;;;;;;;11.82;5.72;;;;;;;27.37;30.12;99043.09;4487353;31;20522;-81
2022/05/07 10:54:23;;;;;;;11.05;5.60;;;;;;;27.44;29.89;99041.34;4487542;31;20157;-81
2022/05/07 10:56:50;;;;;;;10.93;5.55;;;;;;;27.56;30.35;99044.41;4487642;31;20106;-82
2022/05/07 10:59:18;;;;;;;12.88;6.10;;;;;;;27.67;30.15;99043.13;4487581;31;20084;-81
2022/05/07 11:01:43;;;;;;;;;;;;;;;27.63;30.62;99037.25;4486564;32;20104;-81
2022/05/07 11:04:12;;;;;;;10.23;5.55;;;;;;;27.61;30.29;99032.00;4487384;32;19999;-81
2022/05/07 11:06:42;;;;;;;13.27;5.93;;;;;;;27.39;30.50;99031.09;4487297;31;20076;-81
2022/05/07 11:09:17;;;;;;;13.55;6.30;;;;;;;27.42;31.28;99032.56;4487320;31;20103;-81
2022/05/07 11:11:47;;;;;;;10.85;5.43;;;;;;;27.35;30.85;99045.16;4487234;31;20118;-81
2022/05/07 11:14:20;;;;;;;12.32;5.20;;;;;;;27.42;30.15;99032.56;4486389;32;20144;-81
2022/05/07 11:16:46;;;;;;;12.98;5.72;;;;;;;27.49;30.68;99038.06;4487516;31;20085;-81
2022/05/07 11:19:11;;;;;;;10.77;5.05;;;;;;;27.44;30.34;99033.22;4486978;32;20305;-81
2022/05/07 11:21:37;;;;;;;16.25;5.60;;;;;;;27.57;30.36;99029.88;4487091;31;20133;-81
2022/05/07 11:24:03;;;;;;;11.60;5.25;;;;;;;27.54;30.94;99032.94;4487391;31;20111;-81
2022/05/07 11:26:29;;;;;;;12.35;5.80;;;;;;;27.49;30.69;99029.94;4487426;31;20128;-81
2022/05/07 11:28:54;;;;;;;10.95;5.55;;;;;;;27.37;30.46;99035.00;4485767;32;20398;-81
2022/05/07 11:31:31;;;;;;;13.70;5.28;;;;;;;27.42;30.64;99021.75;4472753;32;20140;-81
2022/05/07 11:34:13;;;;;;;10.50;5.43;;;;;;;27.50;30.59;99031.66;4487168;31;20104;-81
2022/05/07 11:36:39;;;;;;;12.52;5.03;;;;;;;27.32;30.20;99021.19;4486883;31;20428;-81
2022/05/07 11:39:06;;;;;;;14.23;6.03;;;;;;;27.12;31.17;99028.97;4485993;32;20107;-81
2022/05/07 11:41:32;;;;;;;13.73;5.55;;;;;;;26.95;30.90;99025.59;4486133;32;20108;-81
2022/05/07 11:46:55;;;;;;;10.30;5.53;;;;;;;26.83;31.61;99019.78;4486986;32;20106;-81
2022/05/07 11:49:33;;;;;;;12.30;5.07;;;;;;;26.74;31.48;99018.19;4487022;31;20098;-81
2022/05/07 11:52:10;;;;;;;11.68;4.85;;;;;;;26.61;31.60;99016.91;4486922;31;20168;-81
2022/05/07 11:54:52;;;;;;;10.82;4.85;;;;;;;26.61;32.05;99010.69;4487053;31;20110;-81
2022/05/07 11:57:31;;;;;;;9.52;4.40;;;;;;;26.25;31.32;99012.09;4485669;32;20460;-81
2022/05/07 11:59:56;;;;;;;10.13;5.03;;;;;;;26.36;31.46;99021.62;4486640;31;20081;-81
2022/05/07 12:02:22;;;;;;;10.77;4.40;;;;;;;26.27;30.97;99020.88;4485604;32;20354;-81